createdAt,value
2022-11-27T00:01:27.245Z,10.33
2022-11-27T00:03:55.117Z,10.37
2022-11-27T00:06:24.314Z,11.20
2022-11-27T00:08:51.610Z,9.90
2022-11-27T00:11:23.980Z,9.07
2022-11-27T00:13:51.465Z,10.80
2022-11-27T00:16:19.886Z,10.10
2022-11-27T00:18:46.787Z,11.17
2022-11-27T00:21:24.329Z,9.50
2022-11-27T00:23:52.560Z,11.03
2022-11-27T00:26:20.658Z,10.73
2022-11-27T00:28:47.626Z,11.00
2022-11-27T00:31:22.575Z,10.47
2022-11-27T00:33:49.358Z,9.67
2022-11-27T00:36:16.270Z,9.07
2022-11-27T00:38:43.031Z,9.97
2022-11-27T00:41:22.299Z,9.97
2022-11-27T00:43:49.246Z,8.50
2022-11-27T00:46:17.762Z,10.43
2022-11-27T00:48:45.500Z,9.43
2022-11-27T00:51:15.107Z,10.90
2022-11-27T00:53:42.345Z,9.80
2022-11-27T00:56:14.051Z,11.30
2022-11-27T00:58:40.831Z,8.40
2022-11-27T01:01:08.416Z,9.23
2022-11-27T01:03:35.541Z,11.23
2022-11-27T01:06:06.798Z,10.33
2022-11-27T01:08:34.580Z,9.97
2022-11-27T01:11:01.776Z,10.37
2022-11-27T01:13:31.597Z,12.53
2022-11-27T01:16:08.094Z,10.47
2022-11-27T01:18:36.499Z,9.57
2022-11-27T01:21:04.414Z,9.90
2022-11-27T01:23:31.691Z,9.60
2022-11-27T01:26:01.571Z,10.77
2022-11-27T01:28:28.242Z,9.20
2022-11-27T01:30:55.641Z,9.30
2022-11-27T01:33:23.189Z,12.10
2022-11-27T01:36:00.872Z,11.33
2022-11-27T01:38:29.212Z,11.27
2022-11-27T01:41:19.728Z,12.77
2022-11-27T01:43:49.452Z,12.17
2022-11-27T01:46:34.925Z,10.60
2022-11-27T01:49:11.236Z,11.57
2022-11-27T01:51:40.713Z,10.27
2022-11-27T01:54:09.417Z,11.97
2022-11-27T01:56:36.905Z,10.73
2022-11-27T01:59:04.097Z,11.57
2022-11-27T02:01:30.973Z,13.07
2022-11-27T02:04:00.664Z,12.33
2022-11-27T02:06:27.946Z,10.83
2022-11-27T02:08:56.074Z,11.10
2022-11-27T02:11:34.515Z,12.30
2022-11-27T02:14:16.226Z,11.77
2022-11-27T02:17:04.918Z,12.07
2022-11-27T02:19:40.401Z,11.00
2022-11-27T02:22:42.138Z,11.23
2022-11-27T02:25:20.921Z,10.33
2022-11-27T02:27:53.638Z,12.13
2022-11-27T02:30:20.490Z,10.40
2022-11-27T02:32:55.955Z,11.43
2022-11-27T02:35:34.013Z,12.43
2022-11-27T02:38:08.214Z,9.87
2022-11-27T02:40:41.416Z,9.23
2022-11-27T02:43:26.211Z,9.67
2022-11-27T02:45:53.500Z,11.03
2022-11-27T02:48:30.014Z,11.57
2022-11-27T02:50:56.723Z,11.33
2022-11-27T02:53:31.076Z,12.80
2022-11-27T02:55:59.403Z,11.63
2022-11-27T02:58:29.017Z,10.03
2022-11-27T03:00:57.792Z,10.73
2022-11-27T03:03:29.559Z,11.00
2022-11-27T03:06:05.942Z,11.20
2022-11-27T03:08:35.472Z,10.27
2022-11-27T03:11:11.134Z,10.30
2022-11-27T03:13:45.446Z,11.33
2022-11-27T03:16:44.165Z,10.83
2022-11-27T03:19:22.862Z,9.80
2022-11-27T03:21:56.605Z,9.87
2022-11-27T03:24:23.964Z,10.87
2022-11-27T03:26:51.445Z,9.60
2022-11-27T03:29:23.385Z,10.40
2022-11-27T03:31:50.154Z,10.27
2022-11-27T03:34:17.376Z,9.33
2022-11-27T03:36:45.495Z,9.77
2022-11-27T03:39:12.488Z,9.17
2022-11-27T03:41:54.499Z,8.67
2022-11-27T03:44:55.136Z,9.63
2022-11-27T03:47:39.919Z,9.13
2022-11-27T03:50:18.953Z,8.70
2022-11-27T03:53:08.141Z,8.50
2022-11-27T03:55:54.780Z,9.00
2022-11-27T03:58:25.680Z,8.10
2022-11-27T04:00:53.517Z,8.30
2022-11-27T04:03:25.783Z,8.90
2022-11-27T04:05:52.964Z,8.93
2022-11-27T04:08:19.956Z,9.20
2022-11-27T04:10:47.305Z,8.53
2022-11-27T04:13:14.257Z,7.17
2022-11-27T04:15:40.986Z,7.97
2022-11-27T04:18:07.663Z,8.00
2022-11-27T04:20:34.309Z,8.17
2022-11-27T04:23:00.983Z,8.13
2022-11-27T04:25:27.655Z,6.80
2022-11-27T04:27:54.370Z,7.20
2022-11-27T04:30:21.166Z,6.90
2022-11-27T04:32:48.028Z,7.03
2022-11-27T04:35:14.821Z,7.43
2022-11-27T04:37:41.464Z,7.30
2022-11-27T04:40:08.740Z,7.57
2022-11-27T04:42:35.372Z,7.30
2022-11-27T04:45:01.993Z,8.27
2022-11-27T04:47:30.625Z,7.87
2022-11-27T04:49:57.236Z,7.03
2022-11-27T04:52:23.849Z,8.33
2022-11-27T04:54:54.193Z,7.30
2022-11-27T04:57:23.697Z,7.13
2022-11-27T04:59:50.401Z,7.33
2022-11-27T05:02:17.125Z,6.63
2022-11-27T05:04:43.782Z,6.50
2022-11-27T05:07:10.554Z,7.00
2022-11-27T05:09:37.451Z,6.20
2022-11-27T05:12:04.379Z,6.40
2022-11-27T05:14:31.060Z,7.47
2022-11-27T05:16:59.086Z,7.53
2022-11-27T05:19:29.696Z,7.60
2022-11-27T05:21:56.760Z,8.10
2022-11-27T05:24:25.739Z,7.73
2022-11-27T05:26:52.959Z,8.33
2022-11-27T05:29:20.653Z,7.80
2022-11-27T05:31:47.603Z,7.60
2022-11-27T05:34:15.078Z,8.60
2022-11-27T05:36:42.904Z,8.00
2022-11-27T05:39:10.913Z,8.23
2022-11-27T05:41:39.221Z,8.93
2022-11-27T05:44:06.049Z,8.00
2022-11-27T05:46:33.485Z,8.40
2022-11-27T05:49:00.231Z,8.23
2022-11-27T05:51:26.943Z,8.20
2022-11-27T05:53:53.582Z,7.43
2022-11-27T05:56:20.329Z,9.03
2022-11-27T05:58:47.999Z,7.37
2022-11-27T06:01:16.732Z,8.30
2022-11-27T06:03:43.514Z,7.00
2022-11-27T06:06:20.695Z,7.13
2022-11-27T06:08:48.152Z,7.53
2022-11-27T06:11:18.011Z,7.43
2022-11-27T06:13:46.788Z,7.70
2022-11-27T06:16:21.857Z,7.33
2022-11-27T06:18:51.082Z,8.93
2022-11-27T06:21:18.411Z,7.67
2022-11-27T06:23:46.244Z,8.00
2022-11-27T06:26:19.341Z,7.33
2022-11-27T06:28:48.106Z,7.33
2022-11-27T06:31:18.406Z,7.53
2022-11-27T06:33:46.656Z,8.13
2022-11-27T06:36:13.449Z,7.00
2022-11-27T06:38:40.406Z,7.80
2022-11-27T06:41:09.842Z,7.60
2022-11-27T06:43:36.702Z,7.37
2022-11-27T06:46:05.214Z,7.30
2022-11-27T06:48:32.963Z,7.50
2022-11-27T06:51:01.145Z,7.83
2022-11-27T06:53:29.546Z,7.23
2022-11-27T06:55:56.939Z,7.67
2022-11-27T06:58:30.653Z,7.43
2022-11-27T07:00:59.626Z,8.33
2022-11-27T07:03:26.518Z,7.73
2022-11-27T07:05:53.344Z,8.27
2022-11-27T07:08:20.469Z,7.33
2022-11-27T07:10:47.178Z,7.90
2022-11-27T07:13:13.910Z,7.17
2022-11-27T07:15:40.556Z,7.80
2022-11-27T07:18:07.324Z,6.87
2022-11-27T07:20:34.199Z,7.70
2022-11-27T07:23:00.984Z,7.03
2022-11-27T07:25:27.645Z,7.40
2022-11-27T07:27:56.010Z,7.83
2022-11-27T07:30:22.675Z,6.77
2022-11-27T07:32:49.511Z,6.97
2022-11-27T07:35:16.253Z,7.23
2022-11-27T07:37:42.881Z,7.00
2022-11-27T07:40:09.692Z,7.13
2022-11-27T07:42:38.446Z,7.37
2022-11-27T07:45:08.333Z,7.03
2022-11-27T07:47:35.273Z,8.67
2022-11-27T07:50:02.022Z,8.63
2022-11-27T07:52:30.188Z,7.63
2022-11-27T07:54:56.877Z,7.30
2022-11-27T07:57:23.462Z,8.10
2022-11-27T07:59:50.102Z,8.13
2022-11-27T08:02:16.799Z,7.37
2022-11-27T08:04:43.883Z,7.47
2022-11-27T08:07:11.434Z,7.13
2022-11-27T08:09:39.365Z,6.33
2022-11-27T08:12:07.124Z,6.80
2022-11-27T08:14:33.923Z,6.83
2022-11-27T08:17:00.587Z,6.63
2022-11-27T08:19:27.360Z,6.00
2022-11-27T08:21:54.016Z,5.97
2022-11-27T08:24:20.836Z,6.90
2022-11-27T08:26:47.528Z,6.20
2022-11-27T08:29:14.394Z,6.60
2022-11-27T08:31:41.258Z,6.60
2022-11-27T08:34:07.884Z,6.60
2022-11-27T08:36:34.673Z,6.60
2022-11-27T08:39:01.437Z,6.57
2022-11-27T08:41:28.192Z,6.33
2022-11-27T08:43:54.868Z,6.70
2022-11-27T08:46:21.655Z,7.00
2022-11-27T08:48:48.372Z,7.20
2022-11-27T08:51:15.891Z,7.00
2022-11-27T08:53:45.488Z,7.13
2022-11-27T08:56:21.573Z,6.70
2022-11-27T08:58:48.846Z,7.17
2022-11-27T09:01:18.483Z,7.17
2022-11-27T09:03:45.426Z,7.60
2022-11-27T09:06:15.645Z,6.57
2022-11-27T09:08:43.545Z,6.27
2022-11-27T09:11:11.710Z,6.97
2022-11-27T09:13:40.184Z,6.60
2022-11-27T09:16:13.030Z,5.87
2022-11-27T09:18:40.672Z,6.10
2022-11-27T09:21:09.996Z,5.73
2022-11-27T09:23:40.038Z,6.77
2022-11-27T09:26:12.446Z,7.93
2022-11-27T09:28:40.335Z,8.17
2022-11-27T09:31:09.149Z,6.73
2022-11-27T09:33:37.888Z,7.90
2022-11-27T09:36:06.662Z,7.33
2022-11-27T09:38:33.751Z,7.43
2022-11-27T09:41:06.590Z,7.73
2022-11-27T09:43:40.569Z,7.67
2022-11-27T09:46:17.420Z,8.20
2022-11-27T09:48:49.172Z,11.97
2022-11-27T09:51:28.283Z,7.17
2022-11-27T09:54:13.071Z,9.03
2022-11-27T09:56:41.833Z,7.30
2022-11-27T09:59:18.051Z,7.50
2022-11-27T10:01:50.546Z,5.97
2022-11-27T10:04:20.268Z,8.23
2022-11-27T10:07:09.207Z,6.87
2022-11-27T10:09:57.724Z,7.60
2022-11-27T10:12:34.532Z,6.30
2022-11-27T10:15:35.103Z,8.20
2022-11-27T10:18:11.633Z,6.63
2022-11-27T10:20:48.685Z,6.40
2022-11-27T10:23:26.494Z,6.27
2022-11-27T10:26:04.024Z,6.47
2022-11-27T10:28:46.754Z,5.90
2022-11-27T10:31:30.187Z,6.30
2022-11-27T10:34:01.498Z,5.90
2022-11-27T10:36:38.885Z,6.70
2022-11-27T10:39:12.957Z,6.33
2022-11-27T10:42:01.313Z,5.87
2022-11-27T10:44:52.690Z,6.40
2022-11-27T10:47:23.891Z,5.40
2022-11-27T10:49:50.591Z,5.93
2022-11-27T10:52:19.227Z,5.67
2022-11-27T10:54:52.910Z,6.30
2022-11-27T10:57:47.430Z,6.20
2022-11-27T11:00:23.155Z,6.20
2022-11-27T11:02:59.590Z,5.87
2022-11-27T11:05:45.150Z,7.53
2022-11-27T11:08:17.958Z,8.63
2022-11-27T11:10:51.562Z,7.73
2022-11-27T11:13:29.632Z,13.70
2022-11-27T11:16:14.788Z,7.00
2022-11-27T11:18:49.076Z,7.97
2022-11-27T11:21:18.248Z,7.57
2022-11-27T11:24:23.309Z,6.93
2022-11-27T11:27:04.823Z,9.90
2022-11-27T11:29:36.453Z,9.10
2022-11-27T11:32:10.838Z,6.90
2022-11-27T11:34:47.022Z,8.07
2022-11-27T11:37:27.131Z,8.50
2022-11-27T11:39:58.169Z,7.90
2022-11-27T11:42:30.342Z,5.50
2022-11-27T11:45:17.503Z,7.37
2022-11-27T11:47:48.788Z,6.00
2022-11-27T11:50:34.032Z,5.20
2022-11-27T11:53:32.028Z,7.47
2022-11-27T11:56:17.675Z,5.70
2022-11-27T11:59:12.810Z,4.60
2022-11-27T12:01:54.442Z,5.20
2022-11-27T12:04:24.368Z,5.03
2022-11-27T12:07:04.562Z,5.97
2022-11-27T12:10:12.856Z,4.47
2022-11-27T12:12:51.065Z,4.40
2022-11-27T12:15:49.701Z,5.07
2022-11-27T12:18:33.680Z,4.77
2022-11-27T12:21:15.180Z,4.23
2022-11-27T12:23:58.774Z,4.57
2022-11-27T12:26:50.392Z,4.10
2022-11-27T12:29:55.594Z,3.33
2022-11-27T12:33:00.557Z,4.70
2022-11-27T12:35:32.423Z,3.43
2022-11-27T12:38:12.886Z,3.20
2022-11-27T12:41:08.274Z,3.33
2022-11-27T12:43:40.456Z,4.13
2022-11-27T12:46:17.068Z,3.50
2022-11-27T12:48:50.430Z,3.63
2022-11-27T12:51:24.329Z,3.47
2022-11-27T12:53:57.847Z,3.50
2022-11-27T12:56:48.011Z,3.53
2022-11-27T12:59:39.123Z,4.40
2022-11-27T13:02:34.372Z,4.90
2022-11-27T13:05:07.627Z,5.23
2022-11-27T13:07:38.722Z,5.80
2022-11-27T13:10:59.138Z,5.50
2022-11-27T13:13:34.132Z,6.13
2022-11-27T13:16:09.967Z,6.67
2022-11-27T13:18:40.821Z,15.03
2022-11-27T13:21:13.363Z,8.63
2022-11-27T13:23:39.953Z,7.63
2022-11-27T13:26:15.203Z,6.93
2022-11-27T13:28:45.103Z,6.90
2022-11-27T13:31:23.793Z,8.47
2022-11-27T13:33:52.269Z,9.57
2022-11-27T13:36:25.924Z,8.53
2022-11-27T13:38:58.981Z,6.80
2022-11-27T13:41:35.687Z,8.80
2022-11-27T13:44:04.223Z,7.00
2022-11-27T13:46:49.047Z,7.27
2022-11-27T13:49:31.259Z,7.50
2022-11-27T13:52:27.558Z,6.87
2022-11-27T13:54:58.789Z,6.97
2022-11-27T13:57:27.140Z,7.20
2022-11-27T14:00:30.374Z,8.10
2022-11-27T14:02:57.038Z,5.83
2022-11-27T14:05:39.983Z,8.20
2022-11-27T14:08:18.531Z,5.73
2022-11-27T14:10:57.577Z,5.73
2022-11-27T14:13:42.039Z,6.60
2022-11-27T14:16:36.890Z,6.60
2022-11-27T14:19:07.014Z,5.93
2022-11-27T14:21:39.210Z,5.70
2022-11-27T14:24:26.029Z,5.93
2022-11-27T14:26:54.338Z,6.13
2022-11-27T14:29:23.197Z,5.00
2022-11-27T14:32:02.933Z,5.40
2022-11-27T14:34:31.409Z,5.90
2022-11-27T14:36:58.965Z,5.33
2022-11-27T14:39:29.521Z,4.73
2022-11-27T14:42:04.867Z,6.73
2022-11-27T14:44:32.307Z,6.47
2022-11-27T14:47:07.045Z,5.63
2022-11-27T14:49:34.309Z,5.77
2022-11-27T14:52:15.125Z,4.93
2022-11-27T14:54:42.400Z,5.43
2022-11-27T14:57:17.204Z,6.33
2022-11-27T14:59:43.920Z,5.93
2022-11-27T15:02:18.077Z,5.23
2022-11-27T15:04:46.570Z,6.33
2022-11-27T15:07:15.894Z,5.50
2022-11-27T15:09:46.430Z,5.80
2022-11-27T15:12:26.563Z,5.17
2022-11-27T15:15:01.537Z,5.67
2022-11-27T15:17:37.252Z,6.63
2022-11-27T15:20:14.226Z,6.57
2022-11-27T15:22:49.557Z,6.17
2022-11-27T15:25:39.571Z,8.37
2022-11-27T15:28:27.012Z,7.37
2022-11-27T15:30:54.405Z,8.57
2022-11-27T15:33:28.292Z,8.77
2022-11-27T15:36:14.858Z,9.03
2022-11-27T15:38:42.182Z,8.70
2022-11-27T15:41:24.867Z,9.07
2022-11-27T15:43:52.511Z,7.60
2022-11-27T15:46:26.817Z,7.57
2022-11-27T15:48:53.530Z,7.90
2022-11-27T15:51:20.218Z,9.00
2022-11-27T15:53:48.186Z,8.77
2022-11-27T15:56:16.160Z,8.60
2022-11-27T15:58:43.200Z,9.40
2022-11-27T16:01:10.913Z,8.57
2022-11-27T16:03:39.772Z,7.77
2022-11-27T16:06:08.375Z,8.83
2022-11-27T16:08:35.485Z,8.00
2022-11-27T16:11:04.987Z,8.47
2022-11-27T16:13:33.924Z,7.33
2022-11-27T16:16:02.647Z,8.90
2022-11-27T16:18:30.100Z,8.57
2022-11-27T16:21:02.581Z,8.47
2022-11-27T16:23:29.218Z,8.43
2022-11-27T16:25:55.881Z,8.37
2022-11-27T16:28:22.712Z,9.03
2022-11-27T16:30:51.961Z,11.30
2022-11-27T16:33:21.231Z,10.37
2022-11-27T16:35:48.301Z,11.20
2022-11-27T16:38:16.464Z,10.10
2022-11-27T16:40:43.495Z,8.87
2022-11-27T16:43:10.437Z,8.17
2022-11-27T16:45:38.781Z,9.07
2022-11-27T16:48:05.580Z,8.93
2022-11-27T16:50:33.358Z,10.67
2022-11-27T16:53:00.024Z,9.40
2022-11-27T16:55:27.945Z,10.03
2022-11-27T16:57:56.701Z,10.40
2022-11-27T17:00:23.525Z,8.33
2022-11-27T17:02:50.364Z,8.73
2022-11-27T17:05:17.107Z,8.80
2022-11-27T17:07:43.793Z,8.27
2022-11-27T17:10:10.710Z,8.97
2022-11-27T17:12:37.296Z,9.40
2022-11-27T17:15:04.532Z,8.97
2022-11-27T17:17:36.833Z,9.43
2022-11-27T17:20:07.328Z,12.80
2022-11-27T17:22:34.186Z,11.43
2022-11-27T17:25:01.430Z,10.30
2022-11-27T17:27:29.886Z,10.97
2022-11-27T17:29:56.648Z,11.83
2022-11-27T17:32:24.934Z,10.77
2022-11-27T17:34:53.623Z,9.87
2022-11-27T17:37:20.513Z,9.33
2022-11-27T17:39:47.846Z,9.20
2022-11-27T17:42:18.149Z,13.30
2022-11-27T17:44:47.922Z,13.80
2022-11-27T17:47:14.630Z,12.77
2022-11-27T17:49:42.313Z,11.73
2022-11-27T17:52:09.259Z,10.10
2022-11-27T17:54:37.419Z,11.77
2022-11-27T17:57:06.467Z,9.93
2022-11-27T17:59:33.952Z,11.40
2022-11-27T18:02:00.798Z,10.63
2022-11-27T18:04:32.957Z,9.73
2022-11-27T18:07:00.015Z,10.03
2022-11-27T18:09:28.729Z,10.73
2022-11-27T18:11:57.227Z,9.33
2022-11-27T18:14:24.203Z,10.13
2022-11-27T18:16:51.172Z,9.17
2022-11-27T18:19:18.063Z,9.37
2022-11-27T18:21:44.729Z,9.77
2022-11-27T18:24:26.635Z,9.07
2022-11-27T18:27:10.111Z,8.53
2022-11-27T18:29:39.324Z,8.63
2022-11-27T18:32:06.755Z,8.93
2022-11-27T18:34:33.957Z,8.93
2022-11-27T18:37:01.052Z,9.10
2022-11-27T18:39:28.157Z,10.00
2022-11-27T18:41:55.107Z,7.97
2022-11-27T18:44:22.736Z,8.97
2022-11-27T18:46:49.450Z,8.03
2022-11-27T18:49:16.480Z,8.50
2022-11-27T18:51:43.124Z,8.17
2022-11-27T18:54:09.712Z,8.30
2022-11-27T18:56:37.488Z,8.17
2022-11-27T18:59:05.834Z,8.60
2022-11-27T19:01:41.594Z,7.30
2022-11-27T19:04:09.978Z,7.90
2022-11-27T19:06:37.621Z,7.90
2022-11-27T19:09:05.981Z,7.53
2022-11-27T19:11:33.875Z,8.90
2022-11-27T19:14:01.061Z,11.00
2022-11-27T19:16:41.916Z,9.40
2022-11-27T19:19:16.836Z,9.97
2022-11-27T19:21:56.189Z,9.17
2022-11-27T19:24:22.983Z,9.17
2022-11-27T19:26:53.442Z,9.23
2022-11-27T19:29:20.200Z,10.00
2022-11-27T19:31:47.831Z,9.07
2022-11-27T19:34:15.106Z,8.63
2022-11-27T19:36:42.037Z,8.73
2022-11-27T19:39:14.173Z,8.63
2022-11-27T19:41:43.267Z,9.20
2022-11-27T19:44:12.776Z,8.40
2022-11-27T19:46:40.928Z,7.87
2022-11-27T19:49:12.215Z,8.97
2022-11-27T19:51:40.786Z,9.37
2022-11-27T19:54:10.591Z,9.10
2022-11-27T19:56:40.544Z,8.87
2022-11-27T19:59:08.549Z,9.20
2022-11-27T20:01:37.570Z,10.80
2022-11-27T20:04:04.949Z,9.30
2022-11-27T20:06:32.255Z,10.03
2022-11-27T20:09:01.642Z,11.33
2022-11-27T20:11:34.270Z,8.80
2022-11-27T20:14:05.395Z,8.63
2022-11-27T20:16:34.365Z,8.83
2022-11-27T20:19:02.212Z,9.40
2022-11-27T20:21:28.922Z,9.37
2022-11-27T20:23:57.096Z,11.90
2022-11-27T20:26:26.367Z,11.30
2022-11-27T20:28:54.170Z,10.23
2022-11-27T20:31:30.999Z,11.33
2022-11-27T20:34:01.243Z,11.17
2022-11-27T20:36:30.250Z,11.83
2022-11-27T20:38:59.739Z,9.63
2022-11-27T20:41:27.697Z,9.37
2022-11-27T20:43:58.349Z,9.67
2022-11-27T20:46:25.515Z,9.67
2022-11-27T20:48:53.788Z,9.63
2022-11-27T20:51:23.463Z,9.23
2022-11-27T20:53:50.370Z,8.60
2022-11-27T20:56:20.004Z,9.03
2022-11-27T20:58:47.807Z,10.90
2022-11-27T21:01:23.337Z,9.67
2022-11-27T21:03:52.136Z,9.50
2022-11-27T21:06:21.899Z,9.70
2022-11-27T21:08:49.042Z,9.40
2022-11-27T21:11:24.942Z,8.77
2022-11-27T21:14:01.368Z,8.10
2022-11-27T21:16:32.898Z,11.77
2022-11-27T21:19:02.500Z,9.73
2022-11-27T21:21:30.301Z,11.70
2022-11-27T21:23:58.595Z,8.93
2022-11-27T21:26:26.103Z,8.13
2022-11-27T21:28:53.066Z,8.20
2022-11-27T21:31:22.962Z,8.20
2022-11-27T21:33:52.703Z,7.60
2022-11-27T21:36:21.798Z,9.07
2022-11-27T21:38:48.953Z,7.73
2022-11-27T21:41:17.516Z,8.90
2022-11-27T21:43:45.527Z,7.93
2022-11-27T21:46:17.214Z,7.93
2022-11-27T21:48:46.280Z,6.90
2022-11-27T21:51:15.215Z,7.90
2022-11-27T21:53:43.448Z,10.47
2022-11-27T21:56:15.270Z,7.50
2022-11-27T21:58:43.067Z,8.07
2022-11-27T22:01:16.666Z,8.13
2022-11-27T22:03:43.927Z,7.60
2022-11-27T22:06:14.518Z,8.60
2022-11-27T22:08:42.915Z,8.23
2022-11-27T22:11:19.410Z,10.47
2022-11-27T22:13:46.648Z,22.93
2022-11-27T22:16:19.226Z,13.30
2022-11-27T22:18:48.064Z,10.43
2022-11-27T22:21:15.708Z,8.97
2022-11-27T22:23:43.501Z,7.73
2022-11-27T22:26:13.240Z,6.33
2022-11-27T22:28:40.088Z,6.97
2022-11-27T22:31:14.543Z,6.70
2022-11-27T22:33:42.081Z,7.20
2022-11-27T22:36:15.327Z,6.23
2022-11-27T22:38:45.204Z,6.67
2022-11-27T22:41:13.993Z,5.70
2022-11-27T22:43:41.705Z,6.03
2022-11-27T22:46:23.539Z,5.70
2022-11-27T22:48:55.047Z,4.87
2022-11-27T22:51:23.120Z,4.97
2022-11-27T22:53:50.202Z,5.30
2022-11-27T22:56:17.157Z,4.87
2022-11-27T22:58:44.915Z,4.37
2022-11-27T23:01:24.463Z,4.43
2022-11-27T23:03:52.204Z,4.03
2022-11-27T23:06:21.277Z,4.40
2022-11-27T23:08:49.732Z,4.07
2022-11-27T23:11:23.230Z,4.70
2022-11-27T23:13:50.247Z,6.33
2022-11-27T23:16:17.868Z,6.37
2022-11-27T23:18:44.697Z,5.23
2022-11-27T23:21:14.866Z,6.07
2022-11-27T23:23:42.102Z,5.47
2022-11-27T23:26:17.410Z,4.30
2022-11-27T23:28:45.115Z,4.43
2022-11-27T23:31:32.056Z,4.70
2022-11-27T23:34:03.609Z,4.10
2022-11-27T23:36:31.954Z,4.20
2022-11-27T23:39:03.649Z,5.43
2022-11-27T23:41:31.171Z,4.40
2022-11-27T23:43:58.046Z,4.13
2022-11-27T23:46:27.808Z,4.50
2022-11-27T23:48:55.504Z,4.13
2022-11-27T23:51:28.027Z,3.90
2022-11-27T23:53:54.944Z,3.90
2022-11-27T23:56:24.929Z,5.50
2022-11-27T23:58:53.169Z,4.30
